sensor_id;sensor_type;location;lat;lon;timestamp;temperature;humidity
67817;DHT22;54614;47.576;7.524;2023-08-06T00:00:39;25.90;58.50
67817;DHT22;54614;47.576;7.524;2023-08-06T00:03:04;25.90;58.50
67817;DHT22;54614;47.576;7.524;2023-08-06T00:05:30;25.90;58.50
67817;DHT22;54614;47.576;7.524;2023-08-06T00:07:56;25.90;58.50
67817;DHT22;54614;47.576;7.524;2023-08-06T00:10:22;25.90;58.50
67817;DHT22;54614;47.576;7.524;2023-08-06T00:12:48;25.90;58.50
67817;DHT22;54614;47.576;7.524;2023-08-06T00:15:14;25.90;58.40
67817;DHT22;54614;47.576;7.524;2023-08-06T00:17:40;25.90;58.40
67817;DHT22;54614;47.576;7.524;2023-08-06T00:20:06;25.90;58.50
67817;DHT22;54614;47.576;7.524;2023-08-06T00:22:33;25.90;58.30
67817;DHT22;54614;47.576;7.524;2023-08-06T00:25:00;25.90;58.40
67817;DHT22;54614;47.576;7.524;2023-08-06T00:27:27;25.90;58.30
67817;DHT22;54614;47.576;7.524;2023-08-06T00:29:53;25.90;58.40
67817;DHT22;54614;47.576;7.524;2023-08-06T00:32:19;25.90;58.20
67817;DHT22;54614;47.576;7.524;2023-08-06T00:34:44;25.90;58.30
67817;DHT22;54614;47.576;7.524;2023-08-06T00:37:10;25.90;58.30
67817;DHT22;54614;47.576;7.524;2023-08-06T00:39:36;25.90;58.30
67817;DHT22;54614;47.576;7.524;2023-08-06T00:42:02;25.90;58.30
67817;DHT22;54614;47.576;7.524;2023-08-06T00:44:28;25.80;58.10
67817;DHT22;54614;47.576;7.524;2023-08-06T00:46:54;25.80;58.10
67817;DHT22;54614;47.576;7.524;2023-08-06T00:49:21;25.80;58.10
67817;DHT22;54614;47.576;7.524;2023-08-06T00:51:47;25.80;58.10
67817;DHT22;54614;47.576;7.524;2023-08-06T00:54:13;25.80;58.10
67817;DHT22;54614;47.576;7.524;2023-08-06T00:56:40;25.80;58.10
67817;DHT22;54614;47.576;7.524;2023-08-06T00:59:07;25.80;58.10
67817;DHT22;54614;47.576;7.524;2023-08-06T01:01:36;25.80;58.10
67817;DHT22;54614;47.576;7.524;2023-08-06T01:04:01;25.80;58.10
67817;DHT22;54614;47.576;7.524;2023-08-06T01:06:48;25.80;58.60
67817;DHT22;54614;47.576;7.524;2023-08-06T01:15:22;25.80;58.00
67817;DHT22;54614;47.576;7.524;2023-08-06T01:17:53;25.80;58.60
67817;DHT22;54614;47.576;7.524;2023-08-06T01:20:19;25.80;58.10
67817;DHT22;54614;47.576;7.524;2023-08-06T01:25:15;25.80;57.50
67817;DHT22;54614;47.576;7.524;2023-08-06T01:27:48;25.80;58.00
67817;DHT22;54614;47.576;7.524;2023-08-06T01:30:30;25.80;58.00
67817;DHT22;54614;47.576;7.524;2023-08-06T01:33:04;25.80;57.90
67817;DHT22;54614;47.576;7.524;2023-08-06T01:35:32;25.80;58.10
67817;DHT22;54614;47.576;7.524;2023-08-06T01:38:01;25.80;58.00
67817;DHT22;54614;47.576;7.524;2023-08-06T01:40:28;25.80;58.00
67817;DHT22;54614;47.576;7.524;2023-08-06T01:42:54;25.80;58.00
67817;DHT22;54614;47.576;7.524;2023-08-06T01:45:20;25.80;58.00
67817;DHT22;54614;47.576;7.524;2023-08-06T01:47:46;25.80;58.00
67817;DHT22;54614;47.576;7.524;2023-08-06T01:50:12;25.80;57.90
67817;DHT22;54614;47.576;7.524;2023-08-06T01:52:38;25.80;58.50
67817;DHT22;54614;47.576;7.524;2023-08-06T01:55:04;25.70;57.90
67817;DHT22;54614;47.576;7.524;2023-08-06T01:57:29;25.70;57.90
67817;DHT22;54614;47.576;7.524;2023-08-06T01:59:55;25.70;57.90
67817;DHT22;54614;47.576;7.524;2023-08-06T02:02:21;25.70;57.90
67817;DHT22;54614;47.576;7.524;2023-08-06T02:04:46;25.80;58.00
67817;DHT22;54614;47.576;7.524;2023-08-06T02:07:12;25.70;57.90
67817;DHT22;54614;47.576;7.524;2023-08-06T02:09:38;25.70;57.90
67817;DHT22;54614;47.576;7.524;2023-08-06T02:12:04;25.70;57.80
67817;DHT22;54614;47.576;7.524;2023-08-06T02:14:30;25.70;57.90
67817;DHT22;54614;47.576;7.524;2023-08-06T02:16:56;25.70;57.90
67817;DHT22;54614;47.576;7.524;2023-08-06T02:19:22;25.70;57.90
67817;DHT22;54614;47.576;7.524;2023-08-06T02:21:47;25.70;57.80
67817;DHT22;54614;47.576;7.524;2023-08-06T02:24:13;25.70;57.90
67817;DHT22;54614;47.576;7.524;2023-08-06T02:26:39;25.70;57.90
67817;DHT22;54614;47.576;7.524;2023-08-06T02:29:04;25.70;57.90
67817;DHT22;54614;47.576;7.524;2023-08-06T02:31:30;25.70;57.60
67817;DHT22;54614;47.576;7.524;2023-08-06T02:33:56;25.70;57.70
67817;DHT22;54614;47.576;7.524;2023-08-06T02:36:22;25.60;57.60
67817;DHT22;54614;47.576;7.524;2023-08-06T02:38:48;25.50;57.70
67817;DHT22;54614;47.576;7.524;2023-08-06T02:41:14;25.50;57.80
67817;DHT22;54614;47.576;7.524;2023-08-06T02:43:39;25.50;57.90
67817;DHT22;54614;47.576;7.524;2023-08-06T02:46:05;25.50;57.90
67817;DHT22;54614;47.576;7.524;2023-08-06T02:48:31;25.50;57.90
67817;DHT22;54614;47.576;7.524;2023-08-06T02:50:58;25.50;57.90
67817;DHT22;54614;47.576;7.524;2023-08-06T02:53:24;25.60;57.90
67817;DHT22;54614;47.576;7.524;2023-08-06T02:55:50;25.60;57.70
67817;DHT22;54614;47.576;7.524;2023-08-06T02:58:17;25.60;57.80
67817;DHT22;54614;47.576;7.524;2023-08-06T03:03:33;25.70;57.90
67817;DHT22;54614;47.576;7.524;2023-08-06T03:06:00;25.70;57.80
67817;DHT22;54614;47.576;7.524;2023-08-06T03:08:26;25.70;57.80
67817;DHT22;54614;47.576;7.524;2023-08-06T03:10:52;25.70;57.90
67817;DHT22;54614;47.576;7.524;2023-08-06T03:13:18;25.70;57.90
67817;DHT22;54614;47.576;7.524;2023-08-06T03:15:54;25.70;57.90
67817;DHT22;54614;47.576;7.524;2023-08-06T03:18:21;25.70;57.90
67817;DHT22;54614;47.576;7.524;2023-08-06T03:20:47;25.70;58.00
67817;DHT22;54614;47.576;7.524;2023-08-06T03:23:13;25.70;57.90
67817;DHT22;54614;47.576;7.524;2023-08-06T03:25:39;25.60;57.90
67817;DHT22;54614;47.576;7.524;2023-08-06T03:28:05;25.60;57.90
67817;DHT22;54614;47.576;7.524;2023-08-06T03:30:31;25.60;58.00
67817;DHT22;54614;47.576;7.524;2023-08-06T03:32:56;25.60;58.00
67817;DHT22;54614;47.576;7.524;2023-08-06T03:35:22;25.60;57.90
67817;DHT22;54614;47.576;7.524;2023-08-06T03:37:48;25.60;58.00
67817;DHT22;54614;47.576;7.524;2023-08-06T03:40:15;25.60;58.00
67817;DHT22;54614;47.576;7.524;2023-08-06T03:42:41;25.60;58.00
67817;DHT22;54614;47.576;7.524;2023-08-06T03:45:07;25.60;58.00
67817;DHT22;54614;47.576;7.524;2023-08-06T03:47:34;25.60;58.00
67817;DHT22;54614;47.576;7.524;2023-08-06T03:49:59;25.60;58.00
67817;DHT22;54614;47.576;7.524;2023-08-06T03:52:25;25.60;58.00
67817;DHT22;54614;47.576;7.524;2023-08-06T03:54:51;25.60;58.00
67817;DHT22;54614;47.576;7.524;2023-08-06T03:57:17;25.60;58.10
67817;DHT22;54614;47.576;7.524;2023-08-06T03:59:43;25.60;58.00
67817;DHT22;54614;47.576;7.524;2023-08-06T04:02:08;25.60;58.00
67817;DHT22;54614;47.576;7.524;2023-08-06T04:04:34;25.60;58.00
67817;DHT22;54614;47.576;7.524;2023-08-06T04:07:00;25.60;58.10
67817;DHT22;54614;47.576;7.524;2023-08-06T04:09:28;25.60;58.10
67817;DHT22;54614;47.576;7.524;2023-08-06T04:11:54;25.60;58.00
67817;DHT22;54614;47.576;7.524;2023-08-06T04:14:20;25.60;58.10
67817;DHT22;54614;47.576;7.524;2023-08-06T04:16:46;25.60;58.10
67817;DHT22;54614;47.576;7.524;2023-08-06T04:19:11;25.60;58.10
67817;DHT22;54614;47.576;7.524;2023-08-06T04:21:37;25.60;58.00
67817;DHT22;54614;47.576;7.524;2023-08-06T04:24:03;25.60;58.10
67817;DHT22;54614;47.576;7.524;2023-08-06T04:26:29;25.60;58.00
67817;DHT22;54614;47.576;7.524;2023-08-06T04:28:54;25.60;58.00
67817;DHT22;54614;47.576;7.524;2023-08-06T04:31:21;25.60;58.10
67817;DHT22;54614;47.576;7.524;2023-08-06T04:33:47;25.60;58.10
67817;DHT22;54614;47.576;7.524;2023-08-06T04:36:13;25.60;58.10
67817;DHT22;54614;47.576;7.524;2023-08-06T04:38:38;25.60;58.10
67817;DHT22;54614;47.576;7.524;2023-08-06T04:41:06;25.60;58.20
67817;DHT22;54614;47.576;7.524;2023-08-06T04:43:32;25.60;58.20
67817;DHT22;54614;47.576;7.524;2023-08-06T04:45:58;25.60;58.10
67817;DHT22;54614;47.576;7.524;2023-08-06T04:48:23;25.60;58.00
67817;DHT22;54614;47.576;7.524;2023-08-06T04:50:50;25.60;58.00
67817;DHT22;54614;47.576;7.524;2023-08-06T04:53:16;25.60;58.10
67817;DHT22;54614;47.576;7.524;2023-08-06T04:55:42;25.50;58.00
67817;DHT22;54614;47.576;7.524;2023-08-06T04:58:13;25.60;58.10
67817;DHT22;54614;47.576;7.524;2023-08-06T05:00:39;25.60;58.00
67817;DHT22;54614;47.576;7.524;2023-08-06T05:03:05;25.60;58.10
67817;DHT22;54614;47.576;7.524;2023-08-06T05:05:31;25.60;58.00
67817;DHT22;54614;47.576;7.524;2023-08-06T05:07:57;25.50;58.00
67817;DHT22;54614;47.576;7.524;2023-08-06T05:10:26;25.50;58.00
67817;DHT22;54614;47.576;7.524;2023-08-06T05:12:53;25.50;58.10
67817;DHT22;54614;47.576;7.524;2023-08-06T05:15:19;25.50;58.20
67817;DHT22;54614;47.576;7.524;2023-08-06T05:17:45;25.40;58.40
67817;DHT22;54614;47.576;7.524;2023-08-06T05:20:11;25.40;58.40
67817;DHT22;54614;47.576;7.524;2023-08-06T05:22:37;25.40;58.40
67817;DHT22;54614;47.576;7.524;2023-08-06T05:25:03;25.50;58.40
67817;DHT22;54614;47.576;7.524;2023-08-06T05:27:29;25.50;58.40
67817;DHT22;54614;47.576;7.524;2023-08-06T05:29:55;25.50;58.50
67817;DHT22;54614;47.576;7.524;2023-08-06T05:32:24;25.50;58.40
67817;DHT22;54614;47.576;7.524;2023-08-06T05:34:50;25.50;58.40
67817;DHT22;54614;47.576;7.524;2023-08-06T05:37:15;25.50;58.40
67817;DHT22;54614;47.576;7.524;2023-08-06T05:39:41;25.50;58.70
67817;DHT22;54614;47.576;7.524;2023-08-06T05:42:07;25.50;58.60
67817;DHT22;54614;47.576;7.524;2023-08-06T05:44:33;25.50;58.70
67817;DHT22;54614;47.576;7.524;2023-08-06T05:46:58;25.50;58.80
67817;DHT22;54614;47.576;7.524;2023-08-06T05:49:24;25.50;58.70
67817;DHT22;54614;47.576;7.524;2023-08-06T05:51:50;25.50;58.90
67817;DHT22;54614;47.576;7.524;2023-08-06T05:54:18;25.40;58.80
67817;DHT22;54614;47.576;7.524;2023-08-06T05:56:44;25.30;58.40
67817;DHT22;54614;47.576;7.524;2023-08-06T05:59:10;25.20;58.10
67817;DHT22;54614;47.576;7.524;2023-08-06T06:01:36;25.20;58.10
67817;DHT22;54614;47.576;7.524;2023-08-06T06:04:02;25.10;58.20
67817;DHT22;54614;47.576;7.524;2023-08-06T06:06:28;25.10;58.10
67817;DHT22;54614;47.576;7.524;2023-08-06T06:08:54;25.10;58.00
67817;DHT22;54614;47.576;7.524;2023-08-06T06:11:19;25.10;57.80
67817;DHT22;54614;47.576;7.524;2023-08-06T06:13:50;25.00;57.90
67817;DHT22;54614;47.576;7.524;2023-08-06T06:16:16;25.00;57.90
67817;DHT22;54614;47.576;7.524;2023-08-06T06:18:42;24.90;57.90
67817;DHT22;54614;47.576;7.524;2023-08-06T06:21:09;24.90;57.70
67817;DHT22;54614;47.576;7.524;2023-08-06T06:23:35;24.90;58.40
67817;DHT22;54614;47.576;7.524;2023-08-06T06:26:01;24.80;57.80
67817;DHT22;54614;47.576;7.524;2023-08-06T06:28:26;24.80;57.80
67817;DHT22;54614;47.576;7.524;2023-08-06T06:30:52;24.80;57.90
67817;DHT22;54614;47.576;7.524;2023-08-06T06:33:18;24.50;57.70
67817;DHT22;54614;47.576;7.524;2023-08-06T06:35:44;24.40;58.50
67817;DHT22;54614;47.576;7.524;2023-08-06T06:38:09;24.10;58.80
67817;DHT22;54614;47.576;7.524;2023-08-06T06:40:35;24.00;59.00
67817;DHT22;54614;47.576;7.524;2023-08-06T06:43:01;24.00;58.90
67817;DHT22;54614;47.576;7.524;2023-08-06T06:45:26;24.00;58.90
67817;DHT22;54614;47.576;7.524;2023-08-06T06:47:52;24.10;58.90
67817;DHT22;54614;47.576;7.524;2023-08-06T06:50:18;24.10;58.80
67817;DHT22;54614;47.576;7.524;2023-08-06T06:52:44;24.10;58.90
67817;DHT22;54614;47.576;7.524;2023-08-06T06:55:09;24.10;58.90
67817;DHT22;54614;47.576;7.524;2023-08-06T06:57:35;24.10;58.80
67817;DHT22;54614;47.576;7.524;2023-08-06T07:00:01;24.00;58.80
67817;DHT22;54614;47.576;7.524;2023-08-06T07:02:26;24.10;58.90
67817;DHT22;54614;47.576;7.524;2023-08-06T07:04:52;24.20;58.80
67817;DHT22;54614;47.576;7.524;2023-08-06T07:07:18;24.20;58.80
67817;DHT22;54614;47.576;7.524;2023-08-06T07:09:44;24.20;58.80
67817;DHT22;54614;47.576;7.524;2023-08-06T07:12:10;24.20;58.80
67817;DHT22;54614;47.576;7.524;2023-08-06T07:14:36;24.20;58.80
67817;DHT22;54614;47.576;7.524;2023-08-06T07:17:01;24.20;58.70
67817;DHT22;54614;47.576;7.524;2023-08-06T07:19:27;24.30;58.60
67817;DHT22;54614;47.576;7.524;2023-08-06T07:21:53;24.20;58.60
67817;DHT22;54614;47.576;7.524;2023-08-06T07:24:19;24.20;58.60
67817;DHT22;54614;47.576;7.524;2023-08-06T07:26:45;24.20;58.60
67817;DHT22;54614;47.576;7.524;2023-08-06T07:29:10;24.20;58.60
67817;DHT22;54614;47.576;7.524;2023-08-06T07:31:36;24.20;58.60
67817;DHT22;54614;47.576;7.524;2023-08-06T07:34:02;24.20;58.70
67817;DHT22;54614;47.576;7.524;2023-08-06T07:36:28;24.20;58.80
67817;DHT22;54614;47.576;7.524;2023-08-06T07:38:53;24.10;58.90
67817;DHT22;54614;47.576;7.524;2023-08-06T07:41:24;24.10;58.90
67817;DHT22;54614;47.576;7.524;2023-08-06T07:43:50;24.20;59.10
67817;DHT22;54614;47.576;7.524;2023-08-06T07:46:16;24.20;58.90
67817;DHT22;54614;47.576;7.524;2023-08-06T07:48:42;24.30;58.90
67817;DHT22;54614;47.576;7.524;2023-08-06T07:51:07;24.40;58.80
67817;DHT22;54614;47.576;7.524;2023-08-06T07:53:33;24.40;58.80
67817;DHT22;54614;47.576;7.524;2023-08-06T07:55:59;24.40;58.90
67817;DHT22;54614;47.576;7.524;2023-08-06T07:58:27;24.50;60.60
67817;DHT22;54614;47.576;7.524;2023-08-06T08:00:54;24.40;61.50
67817;DHT22;54614;47.576;7.524;2023-08-06T08:03:20;24.50;61.00
67817;DHT22;54614;47.576;7.524;2023-08-06T08:05:46;24.50;61.30
67817;DHT22;54614;47.576;7.524;2023-08-06T08:08:12;24.50;61.90
67817;DHT22;54614;47.576;7.524;2023-08-06T08:10:38;24.50;61.10
67817;DHT22;54614;47.576;7.524;2023-08-06T08:13:04;24.50;61.50
67817;DHT22;54614;47.576;7.524;2023-08-06T08:15:31;24.60;65.00
67817;DHT22;54614;47.576;7.524;2023-08-06T08:17:57;24.60;62.70
67817;DHT22;54614;47.576;7.524;2023-08-06T08:20:24;24.60;61.00
67817;DHT22;54614;47.576;7.524;2023-08-06T08:22:50;24.60;61.60
67817;DHT22;54614;47.576;7.524;2023-08-06T08:25:16;24.70;62.40
67817;DHT22;54614;47.576;7.524;2023-08-06T08:27:43;24.70;62.70
67817;DHT22;54614;47.576;7.524;2023-08-06T08:30:09;24.70;62.00
67817;DHT22;54614;47.576;7.524;2023-08-06T08:32:34;24.70;62.40
67817;DHT22;54614;47.576;7.524;2023-08-06T08:35:00;24.70;62.50
67817;DHT22;54614;47.576;7.524;2023-08-06T08:37:26;24.70;62.30
67817;DHT22;54614;47.576;7.524;2023-08-06T08:39:52;24.70;62.20
67817;DHT22;54614;47.576;7.524;2023-08-06T08:42:17;24.70;62.00
67817;DHT22;54614;47.576;7.524;2023-08-06T08:44:44;24.70;62.10
67817;DHT22;54614;47.576;7.524;2023-08-06T08:47:11;24.80;62.30
67817;DHT22;54614;47.576;7.524;2023-08-06T08:49:38;24.80;62.10
67817;DHT22;54614;47.576;7.524;2023-08-06T08:52:07;24.80;62.30
67817;DHT22;54614;47.576;7.524;2023-08-06T08:54:38;24.80;62.10
67817;DHT22;54614;47.576;7.524;2023-08-06T08:57:05;24.80;62.10
67817;DHT22;54614;47.576;7.524;2023-08-06T08:59:33;24.80;62.80
67817;DHT22;54614;47.576;7.524;2023-08-06T09:02:01;24.80;62.10
67817;DHT22;54614;47.576;7.524;2023-08-06T09:04:29;24.80;62.10
67817;DHT22;54614;47.576;7.524;2023-08-06T09:06:58;24.80;62.00
67817;DHT22;54614;47.576;7.524;2023-08-06T09:09:35;24.80;62.00
67817;DHT22;54614;47.576;7.524;2023-08-06T09:12:11;24.80;61.80
67817;DHT22;54614;47.576;7.524;2023-08-06T09:14:39;24.80;61.60
67817;DHT22;54614;47.576;7.524;2023-08-06T09:17:05;24.90;61.90
67817;DHT22;54614;47.576;7.524;2023-08-06T09:19:31;24.80;61.90
67817;DHT22;54614;47.576;7.524;2023-08-06T09:21:58;24.90;61.80
67817;DHT22;54614;47.576;7.524;2023-08-06T09:24:24;24.90;61.70
67817;DHT22;54614;47.576;7.524;2023-08-06T09:26:51;24.90;61.40
67817;DHT22;54614;47.576;7.524;2023-08-06T09:29:17;24.80;61.00
67817;DHT22;54614;47.576;7.524;2023-08-06T09:31:45;24.80;61.80
67817;DHT22;54614;47.576;7.524;2023-08-06T09:34:15;24.80;60.90
67817;DHT22;54614;47.576;7.524;2023-08-06T09:36:43;24.80;61.00
67817;DHT22;54614;47.576;7.524;2023-08-06T09:39:17;24.80;61.00
67817;DHT22;54614;47.576;7.524;2023-08-06T09:41:45;24.80;61.00
67817;DHT22;54614;47.576;7.524;2023-08-06T09:44:19;24.80;61.60
67817;DHT22;54614;47.576;7.524;2023-08-06T09:47:00;24.80;60.80
67817;DHT22;54614;47.576;7.524;2023-08-06T09:49:48;24.80;60.80
67817;DHT22;54614;47.576;7.524;2023-08-06T09:52:14;24.80;60.70
67817;DHT22;54614;47.576;7.524;2023-08-06T09:54:43;24.80;60.70
67817;DHT22;54614;47.576;7.524;2023-08-06T09:57:10;24.80;60.70
67817;DHT22;54614;47.576;7.524;2023-08-06T09:59:38;24.80;60.70
67817;DHT22;54614;47.576;7.524;2023-08-06T10:02:13;24.80;60.60
67817;DHT22;54614;47.576;7.524;2023-08-06T10:04:39;24.80;60.60
67817;DHT22;54614;47.576;7.524;2023-08-06T10:07:06;24.80;60.60
67817;DHT22;54614;47.576;7.524;2023-08-06T10:09:32;24.80;60.60
67817;DHT22;54614;47.576;7.524;2023-08-06T10:11:58;24.80;60.60
67817;DHT22;54614;47.576;7.524;2023-08-06T10:14:28;24.80;60.60
67817;DHT22;54614;47.576;7.524;2023-08-06T10:16:58;24.80;60.60
67817;DHT22;54614;47.576;7.524;2023-08-06T10:19:25;24.80;60.60
67817;DHT22;54614;47.576;7.524;2023-08-06T10:22:28;24.80;60.60
67817;DHT22;54614;47.576;7.524;2023-08-06T10:24:59;24.80;60.50
67817;DHT22;54614;47.576;7.524;2023-08-06T10:32:53;24.80;60.60
67817;DHT22;54614;47.576;7.524;2023-08-06T10:35:37;24.80;60.50
67817;DHT22;54614;47.576;7.524;2023-08-06T10:38:20;24.80;60.50
67817;DHT22;54614;47.576;7.524;2023-08-06T10:41:01;24.80;60.50
67817;DHT22;54614;47.576;7.524;2023-08-06T10:43:32;24.80;60.50
67817;DHT22;54614;47.576;7.524;2023-08-06T10:46:27;24.80;60.60
67817;DHT22;54614;47.576;7.524;2023-08-06T10:48:54;24.80;61.20
67817;DHT22;54614;47.576;7.524;2023-08-06T10:51:19;24.80;60.50
67817;DHT22;54614;47.576;7.524;2023-08-06T10:53:47;24.80;60.50
67817;DHT22;54614;47.576;7.524;2023-08-06T10:56:16;24.80;60.50
67817;DHT22;54614;47.576;7.524;2023-08-06T10:58:48;24.80;60.50
67817;DHT22;54614;47.576;7.524;2023-08-06T11:01:15;24.80;60.50
67817;DHT22;54614;47.576;7.524;2023-08-06T11:03:45;24.80;60.50
67817;DHT22;54614;47.576;7.524;2023-08-06T11:06:18;24.80;60.50
67817;DHT22;54614;47.576;7.524;2023-08-06T11:08:50;24.80;60.60
67817;DHT22;54614;47.576;7.524;2023-08-06T11:11:18;24.80;60.60
67817;DHT22;54614;47.576;7.524;2023-08-06T11:13:47;24.80;60.60
67817;DHT22;54614;47.576;7.524;2023-08-06T11:16:22;24.80;60.60
67817;DHT22;54614;47.576;7.524;2023-08-06T11:18:52;24.80;60.60
67817;DHT22;54614;47.576;7.524;2023-08-06T11:21:20;24.80;60.60
67817;DHT22;54614;47.576;7.524;2023-08-06T11:23:46;24.80;60.60
67817;DHT22;54614;47.576;7.524;2023-08-06T11:26:12;24.80;60.60
67817;DHT22;54614;47.576;7.524;2023-08-06T11:28:44;24.80;60.60
67817;DHT22;54614;47.576;7.524;2023-08-06T11:31:21;24.80;60.60
67817;DHT22;54614;47.576;7.524;2023-08-06T11:33:55;24.80;60.70
67817;DHT22;54614;47.576;7.524;2023-08-06T11:36:34;24.80;60.70
67817;DHT22;54614;47.576;7.524;2023-08-06T11:39:05;24.80;60.70
67817;DHT22;54614;47.576;7.524;2023-08-06T11:41:32;24.80;60.70
67817;DHT22;54614;47.576;7.524;2023-08-06T11:44:01;24.80;60.70
67817;DHT22;54614;47.576;7.524;2023-08-06T11:46:28;24.80;60.80
67817;DHT22;54614;47.576;7.524;2023-08-06T11:48:58;24.80;60.80
67817;DHT22;54614;47.576;7.524;2023-08-06T11:51:27;24.80;60.90
67817;DHT22;54614;47.576;7.524;2023-08-06T11:53:59;24.80;61.00
67817;DHT22;54614;47.576;7.524;2023-08-06T11:56:25;24.70;61.10
67817;DHT22;54614;47.576;7.524;2023-08-06T11:58:54;24.80;61.00
67817;DHT22;54614;47.576;7.524;2023-08-06T12:01:20;24.80;61.00
67817;DHT22;54614;47.576;7.524;2023-08-06T12:03:46;24.80;61.00
67817;DHT22;54614;47.576;7.524;2023-08-06T12:06:12;24.80;61.00
67817;DHT22;54614;47.576;7.524;2023-08-06T12:08:38;24.80;61.10
67817;DHT22;54614;47.576;7.524;2023-08-06T12:11:04;24.80;60.90
67817;DHT22;54614;47.576;7.524;2023-08-06T12:13:29;24.80;60.90
67817;DHT22;54614;47.576;7.524;2023-08-06T12:15:55;24.80;60.90
67817;DHT22;54614;47.576;7.524;2023-08-06T12:18:22;24.90;60.90
67817;DHT22;54614;47.576;7.524;2023-08-06T12:20:48;24.80;60.90
67817;DHT22;54614;47.576;7.524;2023-08-06T12:23:14;24.80;60.80
67817;DHT22;54614;47.576;7.524;2023-08-06T12:25:41;24.80;60.90
67817;DHT22;54614;47.576;7.524;2023-08-06T12:28:07;24.80;60.90
67817;DHT22;54614;47.576;7.524;2023-08-06T12:30:34;24.90;61.00
67817;DHT22;54614;47.576;7.524;2023-08-06T12:33:00;24.90;61.00
67817;DHT22;54614;47.576;7.524;2023-08-06T12:35:26;24.80;60.90
67817;DHT22;54614;47.576;7.524;2023-08-06T12:37:52;24.90;60.90
67817;DHT22;54614;47.576;7.524;2023-08-06T12:40:20;24.80;60.90
67817;DHT22;54614;47.576;7.524;2023-08-06T12:42:46;24.80;61.10
67817;DHT22;54614;47.576;7.524;2023-08-06T12:45:12;24.80;61.20
67817;DHT22;54614;47.576;7.524;2023-08-06T12:47:38;24.80;61.20
67817;DHT22;54614;47.576;7.524;2023-08-06T12:50:04;24.80;61.30
67817;DHT22;54614;47.576;7.524;2023-08-06T12:52:30;24.70;61.20
67817;DHT22;54614;47.576;7.524;2023-08-06T12:54:56;24.80;61.30
67817;DHT22;54614;47.576;7.524;2023-08-06T12:57:21;24.80;61.30
67817;DHT22;54614;47.576;7.524;2023-08-06T12:59:47;24.80;61.30
67817;DHT22;54614;47.576;7.524;2023-08-06T13:02:13;24.80;61.30
67817;DHT22;54614;47.576;7.524;2023-08-06T13:04:39;24.80;61.20
67817;DHT22;54614;47.576;7.524;2023-08-06T13:07:05;24.80;61.30
67817;DHT22;54614;47.576;7.524;2023-08-06T13:09:32;24.80;61.20
67817;DHT22;54614;47.576;7.524;2023-08-06T13:11:58;24.80;61.10
67817;DHT22;54614;47.576;7.524;2023-08-06T13:14:25;24.80;61.10
67817;DHT22;54614;47.576;7.524;2023-08-06T13:16:51;24.90;61.10
67817;DHT22;54614;47.576;7.524;2023-08-06T13:19:17;24.90;61.00
67817;DHT22;54614;47.576;7.524;2023-08-06T13:24:17;24.90;61.00
67817;DHT22;54614;47.576;7.524;2023-08-06T13:26:43;24.90;61.00
67817;DHT22;54614;47.576;7.524;2023-08-06T13:29:09;24.90;61.00
67817;DHT22;54614;47.576;7.524;2023-08-06T13:31:37;24.90;61.00
67817;DHT22;54614;47.576;7.524;2023-08-06T13:34:03;24.90;61.10
67817;DHT22;54614;47.576;7.524;2023-08-06T13:36:30;24.90;61.10
67817;DHT22;54614;47.576;7.524;2023-08-06T13:38:56;24.90;61.00
67817;DHT22;54614;47.576;7.524;2023-08-06T13:41:22;24.90;61.10
67817;DHT22;54614;47.576;7.524;2023-08-06T13:43:48;24.90;61.10
67817;DHT22;54614;47.576;7.524;2023-08-06T13:46:18;24.90;61.10
67817;DHT22;54614;47.576;7.524;2023-08-06T13:48:46;24.80;61.10
67817;DHT22;54614;47.576;7.524;2023-08-06T13:51:13;24.90;61.10
67817;DHT22;54614;47.576;7.524;2023-08-06T13:53:39;24.90;61.10
67817;DHT22;54614;47.576;7.524;2023-08-06T13:56:08;24.90;61.20
67817;DHT22;54614;47.576;7.524;2023-08-06T13:58:38;24.90;61.10
67817;DHT22;54614;47.576;7.524;2023-08-06T14:01:04;24.80;61.10
67817;DHT22;54614;47.576;7.524;2023-08-06T14:03:30;24.80;61.20
67817;DHT22;54614;47.576;7.524;2023-08-06T14:05:56;24.80;61.20
67817;DHT22;54614;47.576;7.524;2023-08-06T14:08:25;24.80;61.30
67817;DHT22;54614;47.576;7.524;2023-08-06T14:10:52;24.80;61.20
67817;DHT22;54614;47.576;7.524;2023-08-06T14:13:18;24.80;61.30
67817;DHT22;54614;47.576;7.524;2023-08-06T14:15:45;24.80;61.30
67817;DHT22;54614;47.576;7.524;2023-08-06T14:18:14;24.80;61.30
67817;DHT22;54614;47.576;7.524;2023-08-06T14:20:41;24.90;61.40
67817;DHT22;54614;47.576;7.524;2023-08-06T14:23:08;24.80;61.30
67817;DHT22;54614;47.576;7.524;2023-08-06T14:25:34;24.90;61.50
67817;DHT22;54614;47.576;7.524;2023-08-06T14:28:00;24.90;61.20
67817;DHT22;54614;47.576;7.524;2023-08-06T14:30:26;24.90;61.20
67817;DHT22;54614;47.576;7.524;2023-08-06T14:32:52;24.90;61.30
67817;DHT22;54614;47.576;7.524;2023-08-06T14:35:17;24.90;61.30
67817;DHT22;54614;47.576;7.524;2023-08-06T14:37:43;24.80;61.30
67817;DHT22;54614;47.576;7.524;2023-08-06T14:40:11;24.90;61.40
67817;DHT22;54614;47.576;7.524;2023-08-06T14:42:37;24.80;61.20
67817;DHT22;54614;47.576;7.524;2023-08-06T14:45:03;24.90;61.30
67817;DHT22;54614;47.576;7.524;2023-08-06T14:47:29;24.90;61.20
67817;DHT22;54614;47.576;7.524;2023-08-06T14:49:55;24.90;61.30
67817;DHT22;54614;47.576;7.524;2023-08-06T14:52:21;24.90;61.20
67817;DHT22;54614;47.576;7.524;2023-08-06T14:54:46;24.90;61.30
67817;DHT22;54614;47.576;7.524;2023-08-06T14:57:12;24.90;61.30
67817;DHT22;54614;47.576;7.524;2023-08-06T14:59:39;24.90;61.30
67817;DHT22;54614;47.576;7.524;2023-08-06T15:02:06;24.90;61.90
67817;DHT22;54614;47.576;7.524;2023-08-06T15:04:32;25.00;61.90
67817;DHT22;54614;47.576;7.524;2023-08-06T15:06:57;25.00;61.10
67817;DHT22;54614;47.576;7.524;2023-08-06T15:09:23;25.00;61.10
67817;DHT22;54614;47.576;7.524;2023-08-06T15:11:49;25.00;61.20
67817;DHT22;54614;47.576;7.524;2023-08-06T15:14:16;24.90;61.10
67817;DHT22;54614;47.576;7.524;2023-08-06T15:16:42;25.00;61.10
67817;DHT22;54614;47.576;7.524;2023-08-06T15:19:07;25.00;61.10
67817;DHT22;54614;47.576;7.524;2023-08-06T15:21:33;25.00;61.10
67817;DHT22;54614;47.576;7.524;2023-08-06T15:23:59;25.00;61.10
67817;DHT22;54614;47.576;7.524;2023-08-06T15:26:25;25.00;61.00
67817;DHT22;54614;47.576;7.524;2023-08-06T15:28:51;25.00;61.00
67817;DHT22;54614;47.576;7.524;2023-08-06T15:31:20;25.00;61.00
67817;DHT22;54614;47.576;7.524;2023-08-06T15:33:47;25.00;60.90
67817;DHT22;54614;47.576;7.524;2023-08-06T15:36:13;25.00;60.90
67817;DHT22;54614;47.576;7.524;2023-08-06T15:38:39;25.00;60.80
67817;DHT22;54614;47.576;7.524;2023-08-06T15:41:04;25.00;60.80
67817;DHT22;54614;47.576;7.524;2023-08-06T15:43:30;25.00;60.90
67817;DHT22;54614;47.576;7.524;2023-08-06T15:45:56;25.00;61.10
67817;DHT22;54614;47.576;7.524;2023-08-06T15:48:22;25.00;61.30